createdAt,value
2019-05-05T00:00:39.088Z,101760.06
2019-05-05T00:03:16.082Z,101758.34
2019-05-05T00:05:47.298Z,101758.34
2019-05-05T00:08:16.785Z,101753.59
2019-05-05T00:11:05.074Z,101752.73
2019-05-05T00:13:36.504Z,101754.48
2019-05-05T00:16:25.549Z,101753.61
2019-05-05T00:18:56.054Z,101755.76
2019-05-05T00:21:25.646Z,101766.55
2019-05-05T00:23:55.461Z,101763.53
2019-05-05T00:26:25.038Z,101779.95
2019-05-05T00:28:55.344Z,101803.69
2019-05-05T00:31:24.880Z,101785.97
2019-05-05T00:33:54.575Z,101782.97
2019-05-05T00:36:24.772Z,101775.20
2019-05-05T00:38:55.950Z,101776.09
2019-05-05T00:41:27.050Z,101777.35
2019-05-05T00:43:56.467Z,101773.47
2019-05-05T00:46:44.673Z,101781.68
2019-05-05T00:49:14.623Z,101789.47
2019-05-05T00:51:44.425Z,101781.70
2019-05-05T00:54:14.900Z,101778.67
2019-05-05T00:56:45.152Z,101782.09
2019-05-05T00:59:16.367Z,101777.78
2019-05-05T01:01:49.927Z,101780.37
2019-05-05T01:04:21.039Z,101777.78
2019-05-05T01:06:50.714Z,101773.04
2019-05-05T01:09:25.688Z,101774.77
2019-05-05T01:11:55.991Z,101781.24
2019-05-05T01:14:25.480Z,101776.08
2019-05-05T01:16:54.927Z,101782.09
2019-05-05T01:19:24.431Z,101785.59
2019-05-05T01:21:54.506Z,101794.22
2019-05-05T01:24:24.893Z,101805.05
2019-05-05T01:26:55.131Z,101807.63
2019-05-05T01:29:26.183Z,101809.35
2019-05-05T01:31:57.536Z,101802.44
2019-05-05T01:34:28.741Z,101801.59
2019-05-05T01:37:01.248Z,101801.58
2019-05-05T01:39:38.145Z,101813.69
2019-05-05T01:42:09.456Z,101807.19
2019-05-05T01:44:39.198Z,101811.08
2019-05-05T01:47:09.978Z,101811.95
2019-05-05T01:49:39.510Z,101814.97
2019-05-05T01:52:09.036Z,101814.97
2019-05-05T01:54:38.457Z,101805.88
2019-05-05T01:57:08.375Z,101808.49
2019-05-05T01:59:38.391Z,101812.78
2019-05-05T02:02:07.954Z,101820.59
2019-05-05T02:04:37.460Z,101815.26
2019-05-05T02:07:06.972Z,101809.59
2019-05-05T02:09:36.507Z,101802.61
2019-05-05T02:12:06.395Z,101798.65
2019-05-05T02:14:35.998Z,101803.39
2019-05-05T02:17:05.599Z,101804.25
2019-05-05T02:19:35.199Z,101802.95
2019-05-05T02:22:07.784Z,101808.09
2019-05-05T02:24:37.529Z,101805.86
2019-05-05T02:27:07.146Z,101802.31
2019-05-05T02:29:54.863Z,101802.30
2019-05-05T02:32:38.122Z,101807.52
2019-05-05T02:35:16.857Z,101807.47
2019-05-05T02:37:47.138Z,101803.98
2019-05-05T02:40:18.316Z,101803.50
2019-05-05T02:42:48.866Z,101806.92
2019-05-05T02:45:35.285Z,101811.64
2019-05-05T02:48:06.505Z,101819.54
2019-05-05T02:50:52.441Z,101812.14
2019-05-05T02:53:14.304Z,101814.32
2019-05-05T02:55:44.219Z,101816.53
2019-05-05T02:58:14.809Z,101815.12
2019-05-05T03:00:54.884Z,101823.87
2019-05-05T03:03:24.972Z,101823.95
2019-05-05T03:05:55.748Z,101828.82
2019-05-05T03:08:26.294Z,101834.10
2019-05-05T03:10:58.106Z,101832.05
2019-05-05T03:13:33.638Z,101838.98
2019-05-05T03:16:18.623Z,101845.09
2019-05-05T03:18:48.796Z,101847.30
2019-05-05T03:21:20.521Z,101849.47
2019-05-05T03:23:50.488Z,101845.17
2019-05-05T03:26:20.544Z,101842.16
2019-05-05T03:28:52.075Z,101840.86
2019-05-05T03:31:26.191Z,101847.75
2019-05-05T03:33:55.142Z,101842.53
2019-05-05T03:36:26.034Z,101838.19
2019-05-05T03:38:56.228Z,101840.81
2019-05-05T03:41:29.052Z,101852.09
2019-05-05T03:44:18.987Z,101854.25
2019-05-05T03:46:49.051Z,101854.69
2019-05-05T03:49:19.151Z,101854.28
2019-05-05T03:51:48.725Z,101856.46
2019-05-05T03:54:19.303Z,101860.34
2019-05-05T03:56:51.102Z,101861.64
2019-05-05T03:59:20.691Z,101861.24
2019-05-05T04:01:54.697Z,101866.44
2019-05-05T04:04:35.320Z,101864.27
2019-05-05T04:07:04.958Z,101866.84
2019-05-05T04:09:34.735Z,101869.03
2019-05-05T04:12:04.592Z,101869.03
2019-05-05T04:14:34.853Z,101870.30
2019-05-05T04:17:24.414Z,101867.70
2019-05-05T04:19:57.879Z,101874.21
2019-05-05T04:22:29.732Z,101871.14
2019-05-05T04:24:59.139Z,101875.46
2019-05-05T04:27:30.695Z,101880.67
2019-05-05T04:30:00.117Z,101879.83
2019-05-05T04:32:29.800Z,101877.67
2019-05-05T04:34:59.210Z,101881.55
2019-05-05T04:37:28.668Z,101885.91
2019-05-05T04:39:58.070Z,101885.89
2019-05-05T04:42:27.513Z,101886.73
2019-05-05T04:44:56.921Z,101892.80
2019-05-05T04:47:28.021Z,101896.70
2019-05-05T04:49:59.142Z,101897.52
2019-05-05T04:52:31.417Z,101895.74
2019-05-05T04:55:00.829Z,101902.22
2019-05-05T04:57:30.345Z,101906.94
2019-05-05T04:59:59.760Z,101906.91
2019-05-05T05:02:34.134Z,101908.62
2019-05-05T05:05:06.493Z,101906.79
2019-05-05T05:07:35.966Z,101906.36
2019-05-05T05:10:08.594Z,101902.87
2019-05-05T05:12:38.035Z,101908.06
2019-05-05T05:15:07.619Z,101911.97
2019-05-05T05:17:41.688Z,101912.78
2019-05-05T05:20:14.025Z,101911.09
2019-05-05T05:22:43.990Z,101912.38
2019-05-05T05:25:13.784Z,101921.51
2019-05-05T05:27:44.349Z,101917.56
2019-05-05T05:30:14.299Z,101914.97
2019-05-05T05:32:44.514Z,101922.31
2019-05-05T05:35:14.369Z,101921.81
2019-05-05T05:37:44.762Z,101930.02
2019-05-05T05:40:19.349Z,101932.55
2019-05-05T05:42:49.446Z,101932.88
2019-05-05T05:45:20.539Z,101931.22
2019-05-05T05:47:59.062Z,101939.11
2019-05-05T05:50:35.875Z,101940.09
2019-05-05T05:53:05.510Z,101940.94
2019-05-05T05:55:34.990Z,101946.76
2019-05-05T05:58:04.940Z,101948.23
2019-05-05T06:00:34.578Z,101949.67
2019-05-05T06:03:04.111Z,101954.95
2019-05-05T06:05:34.518Z,101958.47
2019-05-05T06:08:04.730Z,101964.12
2019-05-05T06:10:34.435Z,101967.19
2019-05-05T06:13:04.279Z,101968.02
2019-05-05T06:15:35.070Z,101977.48
2019-05-05T06:18:07.624Z,101980.05
2019-05-05T06:20:37.026Z,101978.23
2019-05-05T06:23:06.472Z,101985.16
2019-05-05T06:25:38.121Z,101987.58
2019-05-05T06:28:07.709Z,101986.09
2019-05-05T06:30:37.118Z,101992.61
2019-05-05T06:33:06.749Z,101999.94
2019-05-05T06:35:36.271Z,101997.44
2019-05-05T06:38:05.730Z,102000.17
2019-05-05T06:40:48.943Z,102005.43
2019-05-05T06:43:25.044Z,102006.57
2019-05-05T06:45:58.623Z,102007.56
2019-05-05T06:48:28.086Z,102005.33
2019-05-05T06:50:57.557Z,102009.45
2019-05-05T06:53:26.971Z,102010.61
2019-05-05T06:55:56.420Z,102010.84
2019-05-05T06:58:25.845Z,102014.76
2019-05-05T07:00:55.301Z,102022.03
2019-05-05T07:03:24.715Z,102015.52
2019-05-05T07:05:54.162Z,102032.04
2019-05-05T07:08:24.415Z,102033.05
2019-05-05T07:10:54.886Z,102032.55
2019-05-05T07:13:24.539Z,102034.05
2019-05-05T07:15:54.360Z,102034.70
2019-05-05T07:18:25.403Z,102041.88
2019-05-05T07:20:56.382Z,102046.88
2019-05-05T07:23:25.805Z,102049.17
2019-05-05T07:25:55.363Z,102045.64
2019-05-05T07:28:24.823Z,102053.94
2019-05-05T07:30:54.811Z,102051.77
2019-05-05T07:33:24.530Z,102057.55
2019-05-05T07:36:06.145Z,102059.19
2019-05-05T07:38:35.715Z,102056.13
2019-05-05T07:41:05.294Z,102060.66
2019-05-05T07:43:34.761Z,102059.84
2019-05-05T07:46:04.597Z,102058.02
2019-05-05T07:48:34.051Z,102057.68
2019-05-05T07:51:05.182Z,102055.55
2019-05-05T07:53:35.250Z,102064.45
2019-05-05T07:56:07.490Z,102070.59
2019-05-05T07:58:37.395Z,102060.83
2019-05-05T08:01:06.828Z,102063.52
2019-05-05T08:03:36.287Z,102061.98
2019-05-05T08:06:08.706Z,102067.59
2019-05-05T08:08:38.312Z,102075.78
2019-05-05T08:11:07.768Z,102082.86
2019-05-05T08:13:37.334Z,102084.59
2019-05-05T08:16:26.483Z,102085.23
2019-05-05T08:18:57.648Z,102079.99
2019-05-05T08:21:27.099Z,102086.41
2019-05-05T08:23:58.192Z,102093.27
2019-05-05T08:26:29.288Z,102094.41
2019-05-05T08:29:04.637Z,102093.61
2019-05-05T08:31:48.065Z,102093.58
2019-05-05T08:34:20.249Z,102092.70
2019-05-05T08:36:49.684Z,102097.92
2019-05-05T08:39:21.454Z,102096.75
2019-05-05T08:41:50.378Z,102099.92
2019-05-05T08:44:19.834Z,102095.39
2019-05-05T08:46:49.294Z,102102.25
2019-05-05T08:49:18.888Z,102110.75
2019-05-05T08:51:48.395Z,102104.05
2019-05-05T08:54:17.841Z,102098.31
2019-05-05T08:56:47.277Z,102106.52
2019-05-05T08:59:16.741Z,102102.09
2019-05-05T09:01:46.155Z,102090.09
2019-05-05T09:04:15.614Z,102096.08
2019-05-05T09:06:45.090Z,102099.18
2019-05-05T09:09:14.631Z,102116.89
2019-05-05T09:11:44.094Z,102115.76
2019-05-05T09:14:14.935Z,102113.63
2019-05-05T09:16:44.977Z,102108.48
2019-05-05T09:19:16.039Z,102117.27
2019-05-05T09:21:45.506Z,102114.77
2019-05-05T09:24:16.752Z,102124.87
2019-05-05T09:26:49.237Z,102125.63
2019-05-05T09:29:26.753Z,102124.55
2019-05-05T09:31:56.237Z,102119.73
2019-05-05T09:34:25.783Z,102123.34
2019-05-05T09:36:55.425Z,102130.06
2019-05-05T09:39:24.886Z,102130.68
2019-05-05T09:41:54.343Z,102126.75
2019-05-05T09:44:24.263Z,102136.45
2019-05-05T09:46:55.425Z,102141.12
2019-05-05T09:49:26.331Z,102151.83
2019-05-05T09:51:56.005Z,102157.18
2019-05-05T09:54:25.497Z,102165.17
2019-05-05T09:56:57.820Z,102161.11
2019-05-05T09:59:27.231Z,102158.42
2019-05-05T10:01:56.706Z,102164.04
2019-05-05T10:04:27.709Z,102169.72
2019-05-05T10:06:57.261Z,102161.42
2019-05-05T10:09:26.705Z,102165.65
2019-05-05T10:11:56.182Z,102157.19
2019-05-05T10:14:25.627Z,102162.77
2019-05-05T10:16:55.140Z,102154.26
2019-05-05T10:19:26.208Z,102168.41
2019-05-05T10:21:57.202Z,102164.58
2019-05-05T10:24:35.421Z,102162.28
2019-05-05T10:27:05.118Z,102153.97
2019-05-05T10:29:34.560Z,102160.67
2019-05-05T10:32:04.718Z,102160.64
2019-05-05T10:34:36.041Z,102167.20
2019-05-05T10:37:05.662Z,102170.06
2019-05-05T10:39:36.791Z,102174.59
2019-05-05T10:42:06.382Z,102167.67
2019-05-05T10:44:35.786Z,102166.83
2019-05-05T10:47:05.331Z,102175.66
2019-05-05T10:49:34.770Z,102175.56
2019-05-05T10:52:04.342Z,102173.58
2019-05-05T10:54:43.341Z,102180.45
2019-05-05T10:57:06.504Z,102185.95
2019-05-05T10:59:35.922Z,102197.15
2019-05-05T11:02:05.603Z,102192.44
2019-05-05T11:04:35.230Z,102200.98
2019-05-05T11:07:04.739Z,102202.91
2019-05-05T11:09:34.719Z,102204.28
2019-05-05T11:12:04.326Z,102197.34
2019-05-05T11:14:33.872Z,102201.79
2019-05-05T11:17:04.307Z,102205.48
2019-05-05T11:19:34.002Z,102207.59
2019-05-05T11:22:04.939Z,102203.12
2019-05-05T11:24:34.663Z,102198.00
2019-05-05T11:27:04.576Z,102201.11
2019-05-05T11:29:35.736Z,102196.60
2019-05-05T11:32:06.898Z,102195.59
2019-05-05T11:34:36.307Z,102201.92
2019-05-05T11:37:08.237Z,102196.52
2019-05-05T11:39:37.723Z,102200.00
2019-05-05T11:42:07.352Z,102201.30
2019-05-05T11:44:36.780Z,102196.23
2019-05-05T11:47:06.259Z,102190.78
2019-05-05T11:49:35.643Z,102188.39
2019-05-05T11:52:05.196Z,102190.67
2019-05-05T11:54:34.649Z,102195.50
2019-05-05T11:57:04.521Z,102201.16
2019-05-05T11:59:34.079Z,102199.02
2019-05-05T12:02:05.217Z,102190.09
2019-05-05T12:04:34.627Z,102197.47
2019-05-05T12:07:05.730Z,102190.87
2019-05-05T12:09:36.851Z,102195.89
2019-05-05T12:12:07.870Z,102187.95
2019-05-05T12:14:37.422Z,102205.05
2019-05-05T12:17:06.948Z,102202.50
2019-05-05T12:19:36.378Z,102207.81
2019-05-05T12:22:05.868Z,102213.41
2019-05-05T12:24:38.470Z,102202.30
2019-05-05T12:27:15.766Z,102207.05
2019-05-05T12:29:47.781Z,102210.63
2019-05-05T12:32:17.231Z,102217.83
2019-05-05T12:34:46.671Z,102212.26
2019-05-05T12:37:16.110Z,102213.26
2019-05-05T12:39:45.638Z,102216.49
2019-05-05T12:42:15.097Z,102217.48
2019-05-05T12:44:46.209Z,102208.58
2019-05-05T12:47:18.878Z,102214.92
2019-05-05T12:49:48.331Z,102206.63
2019-05-05T12:52:17.812Z,102212.42
2019-05-05T12:54:47.386Z,102214.03
2019-05-05T12:57:17.030Z,102209.84
2019-05-05T12:59:46.537Z,102213.41
2019-05-05T13:02:16.019Z,102214.55
2019-05-05T13:04:45.608Z,102221.05
2019-05-05T13:07:15.025Z,102213.28
2019-05-05T13:09:44.465Z,102213.20
2019-05-05T13:12:14.980Z,102220.21
2019-05-05T13:14:44.636Z,102225.00
2019-05-05T13:17:14.352Z,102221.84
2019-05-05T13:19:48.445Z,102220.41
2019-05-05T13:22:34.874Z,102217.51
2019-05-05T13:25:24.426Z,102217.08
2019-05-05T13:27:57.304Z,102220.78
2019-05-05T13:30:26.631Z,102221.25
2019-05-05T13:32:56.050Z,102235.45
2019-05-05T13:35:25.640Z,102219.23
2019-05-05T13:37:55.131Z,102224.61
2019-05-05T13:40:24.642Z,102223.47
2019-05-05T13:42:54.691Z,102224.86
2019-05-05T13:45:26.094Z,102225.56
2019-05-05T13:47:55.643Z,102221.20
2019-05-05T13:50:29.335Z,102214.22
2019-05-05T13:52:58.812Z,102222.05
2019-05-05T13:55:28.269Z,102214.55
2019-05-05T13:57:57.741Z,102213.73
2019-05-05T14:00:28.135Z,102217.79
2019-05-05T14:02:57.549Z,102217.52
2019-05-05T14:05:26.990Z,102217.48
2019-05-05T14:07:56.403Z,102218.44
2019-05-05T14:10:25.858Z,102211.63
2019-05-05T14:12:55.272Z,102215.48
2019-05-05T14:15:24.772Z,102207.77
2019-05-05T14:17:54.415Z,102212.66
2019-05-05T14:20:24.307Z,102213.47
2019-05-05T14:22:54.356Z,102209.52
2019-05-05T14:25:26.440Z,102207.62
2019-05-05T14:27:56.037Z,102211.80
2019-05-05T14:30:46.351Z,102213.86
2019-05-05T14:33:20.353Z,102210.25
2019-05-05T14:36:08.364Z,102208.66
2019-05-05T14:38:44.334Z,102226.89
2019-05-05T14:41:13.720Z,102228.48
2019-05-05T14:43:43.844Z,102224.17
2019-05-05T14:46:14.490Z,102225.06
2019-05-05T14:48:44.215Z,102228.22
2019-05-05T14:51:14.547Z,102228.13
2019-05-05T14:53:45.698Z,102218.66
2019-05-05T14:56:15.246Z,102214.28
2019-05-05T14:58:44.767Z,102222.68
2019-05-05T15:01:15.186Z,102222.88
2019-05-05T15:03:44.652Z,102234.20
2019-05-05T15:06:17.924Z,102235.44
2019-05-05T15:08:54.633Z,102222.78
2019-05-05T15:11:28.810Z,102225.81
2019-05-05T15:13:58.256Z,102230.59
2019-05-05T15:16:29.328Z,102226.59
2019-05-05T15:18:58.732Z,102220.37
2019-05-05T15:21:28.208Z,102222.09
2019-05-05T15:23:57.960Z,102214.75
2019-05-05T15:26:27.394Z,102216.91
2019-05-05T15:29:01.388Z,102222.97
2019-05-05T15:31:28.109Z,102217.85
2019-05-05T15:33:57.586Z,102212.80
2019-05-05T15:36:29.450Z,102221.44
2019-05-05T15:38:58.225Z,102219.10
2019-05-05T15:41:27.808Z,102204.53
2019-05-05T15:43:57.413Z,102215.62
2019-05-05T15:46:27.833Z,102208.06
2019-05-05T15:48:58.170Z,102211.36
2019-05-05T15:51:27.598Z,102203.03
2019-05-05T15:53:57.056Z,102208.14
2019-05-05T15:56:26.526Z,102205.52
2019-05-05T15:58:56.061Z,102200.93
2019-05-05T16:01:25.635Z,102196.62
2019-05-05T16:03:55.129Z,102202.70
2019-05-05T16:06:24.567Z,102203.05
2019-05-05T16:08:56.456Z,102204.52
2019-05-05T16:11:28.551Z,102208.04
2019-05-05T16:13:58.042Z,102201.20
2019-05-05T16:16:41.237Z,102190.23
2019-05-05T16:19:28.807Z,102201.65
2019-05-05T16:22:00.085Z,102203.34
2019-05-05T16:24:36.489Z,102207.72
2019-05-05T16:27:18.404Z,102209.04
2019-05-05T16:29:36.195Z,102204.24
2019-05-05T16:32:18.417Z,102201.52
2019-05-05T16:34:36.823Z,102202.09
2019-05-05T16:37:06.269Z,102208.20
2019-05-05T16:39:36.081Z,102203.19
2019-05-05T16:42:05.618Z,102192.72
2019-05-05T16:44:35.063Z,102203.09
2019-05-05T16:47:04.815Z,102197.30
2019-05-05T16:49:35.487Z,102193.80
2019-05-05T16:52:06.740Z,102191.14
2019-05-05T16:54:39.426Z,102197.38
2019-05-05T16:57:08.868Z,102200.59
2019-05-05T16:59:38.308Z,102204.80
2019-05-05T17:02:07.776Z,102192.98
2019-05-05T17:04:37.244Z,102193.38
2019-05-05T17:07:06.954Z,102196.47
2019-05-05T17:09:36.795Z,102196.02
2019-05-05T17:12:09.640Z,102192.22
2019-05-05T17:14:58.787Z,102192.77
2019-05-05T17:17:34.083Z,102193.39
2019-05-05T17:20:16.122Z,102195.36
2019-05-05T17:22:47.368Z,102190.05
2019-05-05T17:25:17.244Z,102201.95
2019-05-05T17:27:50.477Z,102204.03
2019-05-05T17:30:19.910Z,102200.91
2019-05-05T17:32:49.332Z,102198.36
2019-05-05T17:35:18.869Z,102198.11
2019-05-05T17:37:48.266Z,102190.83
2019-05-05T17:40:19.436Z,102197.90
2019-05-05T17:42:59.764Z,102195.77
2019-05-05T17:45:50.840Z,102190.94
2019-05-05T17:48:23.744Z,102193.03
2019-05-05T17:50:54.944Z,102192.98
2019-05-05T17:53:34.991Z,102187.21
2019-05-05T17:56:06.140Z,102187.91
2019-05-05T17:58:35.563Z,102190.48
2019-05-05T18:01:05.268Z,102195.08
2019-05-05T18:03:34.694Z,102196.98
2019-05-05T18:06:23.603Z,102195.28
2019-05-05T18:08:54.855Z,102189.40
2019-05-05T18:11:35.348Z,102198.33
2019-05-05T18:14:19.441Z,102191.04
2019-05-05T18:16:50.428Z,102192.37
2019-05-05T18:19:19.968Z,102198.09
2019-05-05T18:21:49.394Z,102199.02
2019-05-05T18:24:18.838Z,102214.63
2019-05-05T18:26:48.243Z,102223.31
2019-05-05T18:29:19.231Z,102225.67
2019-05-05T18:31:48.636Z,102212.22
2019-05-05T18:34:18.595Z,102215.65
2019-05-05T18:36:48.040Z,102205.72
2019-05-05T18:39:17.454Z,102210.96
2019-05-05T18:41:54.536Z,102211.85
2019-05-05T18:44:25.599Z,102214.05
2019-05-05T18:47:15.624Z,102206.70
2019-05-05T18:49:44.072Z,102209.77
2019-05-05T18:52:13.969Z,102204.98
2019-05-05T18:54:45.047Z,102205.44
2019-05-05T18:57:14.674Z,102208.46
2019-05-05T18:59:44.726Z,102209.34
2019-05-05T19:02:18.447Z,102209.34
2019-05-05T19:05:00.103Z,102210.63
2019-05-05T19:07:35.346Z,102209.79
2019-05-05T19:10:07.218Z,102210.64
2019-05-05T19:12:36.939Z,102208.05
2019-05-05T19:15:07.655Z,102208.06
2019-05-05T19:17:37.134Z,102208.94
2019-05-05T19:20:14.558Z,102208.48
2019-05-05T19:22:43.755Z,102213.70
2019-05-05T19:25:16.132Z,102221.92
2019-05-05T19:27:46.452Z,102221.05
2019-05-05T19:30:17.513Z,102213.26
2019-05-05T19:32:46.939Z,102207.16
2019-05-05T19:35:16.476Z,102209.78
2019-05-05T19:37:45.874Z,102205.86
2019-05-05T19:40:15.382Z,102206.75
2019-05-05T19:42:46.311Z,102204.14
2019-05-05T19:45:16.150Z,102207.17
2019-05-05T19:47:45.626Z,102203.27
2019-05-05T19:50:17.343Z,102200.24
2019-05-05T19:52:46.942Z,102200.23
2019-05-05T19:55:16.359Z,102198.05
2019-05-05T19:57:45.933Z,102195.89
2019-05-05T20:00:15.639Z,102197.64
2019-05-05T20:02:45.490Z,102190.68
2019-05-05T20:05:16.435Z,102189.36
2019-05-05T20:07:45.873Z,102191.56
2019-05-05T20:10:15.650Z,102189.39
2019-05-05T20:12:47.011Z,102193.27
2019-05-05T20:15:33.720Z,102186.36
2019-05-05T20:18:04.681Z,102183.78
2019-05-05T20:20:35.687Z,102183.77
2019-05-05T20:23:05.122Z,102172.95
2019-05-05T20:25:34.575Z,102182.06
2019-05-05T20:28:05.530Z,102180.33
2019-05-05T20:30:34.979Z,102180.77
2019-05-05T20:33:13.901Z,102177.30
2019-05-05T20:35:45.683Z,102177.72
2019-05-05T20:38:29.091Z,102177.74
2019-05-05T20:41:14.214Z,102176.45
2019-05-05T20:43:44.738Z,102179.03
2019-05-05T20:46:14.668Z,102172.55
2019-05-05T20:48:44.829Z,102172.53
2019-05-05T20:51:14.553Z,102170.38
2019-05-05T20:53:44.696Z,102164.73
2019-05-05T20:56:15.354Z,102169.06
2019-05-05T20:58:44.826Z,102166.46
2019-05-05T21:01:14.363Z,102165.17
2019-05-05T21:03:43.771Z,102163.84
2019-05-05T21:06:14.000Z,102163.41
2019-05-05T21:08:44.135Z,102160.81
2019-05-05T21:11:14.275Z,102158.65
2019-05-05T21:13:45.158Z,102151.73
2019-05-05T21:16:14.807Z,102151.73
2019-05-05T21:18:44.184Z,102145.20
2019-05-05T21:21:15.283Z,102154.77
2019-05-05T21:23:46.340Z,102147.39
2019-05-05T21:26:17.505Z,102145.66
2019-05-05T21:28:46.916Z,102151.28
2019-05-05T21:31:16.352Z,102143.95
2019-05-05T21:33:45.768Z,102140.48
2019-05-05T21:36:15.337Z,102141.77
2019-05-05T21:38:44.738Z,102135.28
2019-05-05T21:41:14.305Z,102133.55
2019-05-05T21:43:44.869Z,102133.11
2019-05-05T21:46:14.506Z,102131.81
2019-05-05T21:48:44.890Z,102134.41
2019-05-05T21:51:23.965Z,102136.58
2019-05-05T21:54:11.306Z,102131.78
2019-05-05T21:56:54.613Z,102135.27
2019-05-05T21:59:24.113Z,102129.60
2019-05-05T22:01:53.634Z,102123.11
2019-05-05T22:04:23.917Z,102127.00
2019-05-05T22:06:54.914Z,102127.00
2019-05-05T22:09:27.006Z,102123.09
2019-05-05T22:11:56.472Z,102123.52
2019-05-05T22:14:25.922Z,102120.48
2019-05-05T22:16:55.453Z,102123.95
2019-05-05T22:19:27.377Z,102124.80
2019-05-05T22:21:58.475Z,102126.55
2019-05-05T22:24:27.892Z,102122.65
2019-05-05T22:26:57.327Z,102120.48
2019-05-05T22:29:26.721Z,102113.97
2019-05-05T22:31:56.156Z,102115.30
2019-05-05T22:34:25.631Z,102114.88
2019-05-05T22:36:55.140Z,102110.97
2019-05-05T22:39:24.576Z,102110.11
2019-05-05T22:41:55.620Z,102112.28
2019-05-05T22:44:25.062Z,102107.52
2019-05-05T22:46:54.541Z,102111.44
2019-05-05T22:49:24.321Z,102116.20
2019-05-05T22:51:54.241Z,102107.55
2019-05-05T22:54:24.171Z,102108.84
2019-05-05T22:56:54.066Z,102107.09
2019-05-05T22:59:26.121Z,102107.97
2019-05-05T23:01:54.836Z,102107.55
2019-05-05T23:04:29.150Z,102104.52
2019-05-05T23:07:00.209Z,102109.72
2019-05-05T23:09:29.711Z,102110.16
2019-05-05T23:12:00.704Z,102111.45
2019-05-05T23:14:34.104Z,102110.56
2019-05-05T23:17:16.519Z,102102.36
2019-05-05T23:20:05.295Z,102104.94
2019-05-05T23:22:51.650Z,102104.51
2019-05-05T23:25:34.978Z,102104.94
2019-05-05T23:28:04.383Z,102108.83
2019-05-05T23:30:41.464Z,102101.91
2019-05-05T23:33:06.504Z,102090.20
2019-05-05T23:35:36.148Z,102095.84
2019-05-05T23:38:05.547Z,102094.55
2019-05-05T23:40:35.224Z,102092.81
2019-05-05T23:43:04.698Z,102080.25
2019-05-05T23:45:34.304Z,102078.96
2019-05-05T23:48:03.865Z,102080.70
2019-05-05T23:50:33.815Z,102075.94
2019-05-05T23:53:03.384Z,102082.86
2019-05-05T23:55:34.431Z,102084.14
2019-05-05T23:58:03.958Z,102080.69
